createdAt,value
2023-02-21T00:00:47.379Z,17.70
2023-02-21T00:06:17.206Z,29.70
2023-02-21T00:11:38.924Z,26.00
2023-02-21T00:17:00.231Z,26.30
2023-02-21T00:22:21.772Z,34.60
2023-02-21T00:27:44.488Z,20.40
2023-02-21T00:33:07.300Z,16.50
2023-02-21T00:38:29.848Z,14.60
2023-02-21T00:43:53.736Z,20.00
2023-02-21T00:49:15.386Z,14.20
2023-02-21T00:54:36.985Z,16.70
2023-02-21T00:59:58.560Z,19.10
2023-02-21T01:05:20.615Z,12.70
2023-02-21T01:10:42.232Z,32.30
2023-02-21T01:16:03.867Z,16.10
2023-02-21T01:21:25.579Z,13.40
2023-02-21T01:26:47.149Z,16.90
2023-02-21T01:32:09.597Z,20.00
2023-02-21T01:37:31.229Z,19.00
2023-02-21T01:42:52.912Z,24.20
2023-02-21T01:48:14.551Z,15.70
2023-02-21T01:53:43.293Z,15.40
2023-02-21T01:59:07.259Z,18.30
2023-02-21T02:04:29.111Z,22.00
2023-02-21T02:09:50.829Z,11.20
2023-02-21T02:14:53.665Z,17.80
2023-02-21T02:20:21.171Z,17.20
2023-02-21T02:25:58.786Z,14.40
2023-02-21T02:31:10.909Z,10.70
2023-02-21T02:36:15.345Z,17.30
2023-02-21T02:41:47.738Z,11.70
2023-02-21T02:46:52.802Z,22.30
2023-02-21T02:52:04.118Z,23.10
2023-02-21T02:57:10.862Z,16.10
2023-02-21T03:02:55.543Z,24.50
2023-02-21T03:08:02.755Z,17.80
2023-02-21T03:13:31.251Z,21.20
2023-02-21T03:18:41.620Z,21.40
2023-02-21T03:23:47.019Z,21.40
2023-02-21T03:28:50.730Z,18.30
2023-02-21T03:33:54.423Z,24.90
2023-02-21T03:38:57.512Z,14.50
2023-02-21T03:44:00.521Z,20.30
2023-02-21T03:49:03.449Z,17.90
2023-02-21T03:54:06.342Z,30.70
2023-02-21T03:59:09.703Z,23.40
2023-02-21T04:04:12.620Z,25.80
2023-02-21T04:09:15.874Z,31.30
2023-02-21T04:19:21.577Z,40.80
2023-02-21T04:24:24.459Z,36.90
2023-02-21T04:29:27.374Z,30.50
2023-02-21T04:34:30.343Z,19.00
2023-02-21T04:39:33.224Z,25.90
2023-02-21T04:44:37.039Z,24.90
2023-02-21T04:49:39.913Z,24.50
2023-02-21T04:54:42.827Z,25.60
2023-02-21T04:59:46.271Z,23.50
2023-02-21T05:04:49.307Z,13.50
2023-02-21T05:09:52.405Z,25.60
2023-02-21T05:14:55.357Z,23.00
2023-02-21T05:19:58.320Z,20.30
2023-02-21T05:25:01.218Z,24.40
2023-02-21T05:30:04.463Z,18.60
2023-02-21T05:45:16.089Z,31.70
2023-02-21T05:50:22.062Z,30.40
2023-02-21T06:06:32.255Z,37.20
2023-02-21T06:11:42.620Z,30.70
2023-02-21T06:16:48.748Z,28.80
2023-02-21T06:21:56.333Z,32.40
2023-02-21T06:27:01.329Z,31.70
2023-02-21T06:32:09.576Z,30.10
2023-02-21T06:37:31.836Z,25.00
2023-02-21T06:42:35.016Z,23.50
2023-02-21T06:47:38.996Z,49.20
2023-02-21T06:52:45.015Z,36.60
2023-02-21T06:57:49.271Z,29.00
2023-02-21T07:07:58.761Z,28.20
2023-02-21T07:13:01.647Z,33.30
2023-02-21T07:18:04.662Z,32.70
2023-02-21T07:23:07.605Z,35.90
2023-02-21T07:28:11.362Z,20.20
2023-02-21T07:33:14.233Z,29.00
2023-02-21T07:38:24.823Z,32.90
2023-02-21T07:43:28.896Z,30.50
2023-02-21T07:48:31.958Z,23.20
2023-02-21T07:53:35.444Z,37.80
2023-02-21T07:58:39.068Z,45.10
2023-02-21T08:03:42.186Z,20.50
2023-02-21T08:08:45.800Z,35.60
2023-02-21T08:13:48.744Z,45.20
2023-02-21T08:18:51.671Z,94.60
2023-02-21T08:23:55.158Z,26.50
2023-02-21T08:28:58.154Z,26.60
2023-02-21T08:34:01.591Z,36.60
2023-02-21T08:39:05.947Z,26.70
2023-02-21T08:44:10.458Z,30.50
2023-02-21T08:49:13.404Z,33.80
2023-02-21T08:54:16.281Z,34.10
2023-02-21T08:59:19.479Z,30.20
2023-02-21T09:04:24.391Z,29.90
2023-02-21T09:09:27.775Z,53.90
2023-02-21T09:14:30.678Z,40.10
2023-02-21T09:19:34.208Z,36.80
2023-02-21T09:24:38.275Z,49.80
2023-02-21T09:29:54.915Z,31.60
2023-02-21T09:34:59.857Z,40.60
2023-02-21T09:40:04.438Z,35.80
2023-02-21T09:45:16.093Z,28.90
2023-02-21T09:50:20.846Z,27.20
2023-02-21T09:55:40.547Z,33.70
2023-02-21T10:00:46.265Z,32.70
2023-02-21T10:06:20.139Z,31.40
2023-02-21T10:11:35.269Z,35.00
2023-02-21T10:16:56.400Z,38.90
2023-02-21T10:22:02.781Z,48.90
2023-02-21T10:27:08.514Z,22.40
2023-02-21T10:32:14.719Z,31.90
2023-02-21T10:37:33.324Z,50.30
2023-02-21T10:42:50.501Z,41.70
2023-02-21T10:48:05.755Z,136.40
2023-02-21T10:53:40.682Z,60.20
2023-02-21T11:03:51.880Z,30.30
2023-02-21T11:08:59.344Z,57.70
2023-02-21T11:14:22.488Z,35.60
2023-02-21T11:19:25.789Z,36.20
2023-02-21T11:34:37.390Z,25.20
2023-02-21T11:39:41.630Z,23.00
2023-02-21T11:44:45.297Z,41.00
2023-02-21T11:50:20.136Z,53.70
2023-02-21T11:55:30.002Z,46.50
2023-02-21T12:01:05.682Z,32.10
2023-02-21T12:06:29.184Z,32.80
2023-02-21T12:11:42.393Z,22.30
2023-02-21T12:17:16.097Z,33.30
2023-02-21T12:22:22.529Z,31.40
2023-02-21T12:27:34.616Z,25.80
2023-02-21T12:32:56.132Z,26.50
2023-02-21T12:37:59.036Z,54.00
2023-02-21T12:43:32.895Z,38.00
2023-02-21T12:48:54.909Z,23.70
2023-02-21T12:54:21.785Z,43.00
2023-02-21T12:59:33.550Z,26.20
2023-02-21T13:04:52.700Z,43.30
2023-02-21T13:09:59.904Z,42.50
2023-02-21T13:15:25.704Z,38.60
2023-02-21T13:20:35.989Z,27.20
2023-02-21T13:26:20.184Z,33.60
2023-02-21T13:31:26.586Z,37.20
2023-02-21T13:36:39.985Z,41.40
2023-02-21T13:41:48.248Z,29.30
2023-02-21T13:46:51.083Z,38.60
2023-02-21T13:51:56.213Z,34.70
2023-02-21T13:56:58.986Z,37.30
2023-02-21T14:02:23.245Z,32.10
2023-02-21T14:08:02.741Z,18.50
2023-02-21T14:13:41.548Z,33.90
2023-02-21T14:19:02.843Z,30.80
2023-02-21T14:24:28.187Z,34.90
2023-02-21T14:29:42.100Z,46.90
2023-02-21T14:34:48.138Z,41.90
2023-02-21T14:40:10.506Z,41.30
2023-02-21T14:45:14.210Z,48.10
2023-02-21T14:50:29.332Z,39.60
2023-02-21T14:56:16.695Z,53.80
2023-02-21T15:01:19.549Z,40.70
2023-02-21T15:06:25.714Z,39.20
2023-02-21T15:11:37.757Z,43.00
2023-02-21T15:16:46.637Z,42.60
2023-02-21T15:21:49.576Z,46.40
2023-02-21T15:27:11.807Z,41.70
2023-02-21T15:32:15.064Z,36.00
2023-02-21T15:37:29.593Z,99.00
2023-02-21T15:42:35.195Z,51.90
2023-02-21T15:47:38.620Z,46.30
2023-02-21T15:52:44.017Z,57.40
2023-02-21T15:57:57.930Z,102.20
2023-02-21T16:03:33.504Z,98.60
2023-02-21T16:08:39.322Z,67.10
2023-02-21T16:13:42.270Z,74.40
2023-02-21T16:18:45.177Z,57.60
2023-02-21T16:23:48.180Z,59.10
2023-02-21T16:28:50.990Z,61.70
2023-02-21T16:33:54.030Z,68.90
2023-02-21T16:38:58.280Z,51.50
2023-02-21T16:44:01.126Z,77.90
2023-02-21T16:49:03.934Z,97.10
2023-02-21T16:54:09.033Z,50.40
2023-02-21T16:59:18.571Z,50.20
2023-02-21T17:04:24.313Z,64.60
2023-02-21T17:09:29.452Z,84.60
2023-02-21T17:14:33.170Z,74.50
2023-02-21T17:19:35.995Z,95.40
2023-02-21T17:24:38.853Z,123.30
2023-02-21T17:29:41.631Z,83.50
2023-02-21T17:34:46.037Z,90.20
2023-02-21T17:39:53.885Z,141.40
2023-02-21T17:44:57.634Z,139.80
2023-02-21T17:50:02.844Z,77.10
2023-02-21T17:55:08.165Z,132.70
2023-02-21T18:00:21.600Z,112.60
2023-02-21T18:10:27.980Z,112.40
2023-02-21T18:15:30.776Z,82.90
2023-02-21T18:20:34.289Z,72.80
2023-02-21T18:25:37.194Z,56.80
2023-02-21T18:30:40.053Z,62.20
2023-02-21T18:35:43.001Z,49.70
2023-02-21T18:40:46.153Z,67.90
2023-02-21T18:45:50.760Z,92.80
2023-02-21T18:50:54.184Z,59.30
2023-02-21T18:55:58.198Z,43.40
2023-02-21T19:01:01.176Z,50.20
2023-02-21T19:06:04.235Z,42.00
2023-02-21T19:11:07.255Z,71.40
2023-02-21T19:16:10.148Z,39.30
2023-02-21T19:21:13.064Z,76.10
2023-02-21T19:26:16.341Z,71.00
2023-02-21T19:36:23.274Z,43.60
2023-02-21T19:41:26.188Z,44.20
2023-02-21T19:46:30.170Z,57.20
2023-02-21T19:51:34.134Z,49.80
2023-02-21T19:56:36.934Z,74.10
2023-02-21T20:01:40.095Z,62.20
2023-02-21T20:11:45.849Z,114.00
2023-02-21T20:16:48.784Z,174.80
2023-02-21T20:21:54.318Z,350.70
2023-02-21T20:26:58.043Z,151.00
2023-02-21T20:32:00.991Z,53.50
2023-02-21T20:37:03.953Z,40.50
2023-02-21T20:42:07.981Z,51.80
2023-02-21T20:47:10.991Z,75.50
2023-02-21T20:52:15.749Z,120.80
2023-02-21T20:57:18.744Z,39.20
2023-02-21T21:02:21.647Z,76.70
2023-02-21T21:07:25.368Z,43.70
2023-02-21T21:12:28.173Z,60.40
2023-02-21T21:17:31.173Z,52.40
2023-02-21T21:22:34.636Z,71.20
2023-02-21T21:27:40.160Z,81.90
2023-02-21T21:32:43.063Z,51.00
2023-02-21T21:37:47.157Z,37.90
2023-02-21T21:42:52.653Z,33.00
2023-02-21T21:47:58.741Z,21.60
2023-02-21T21:53:01.743Z,22.90
2023-02-21T21:58:10.787Z,101.70
2023-02-21T22:03:18.482Z,32.50
2023-02-21T22:08:22.630Z,56.30
2023-02-21T22:13:29.628Z,29.10
2023-02-21T22:18:32.437Z,17.70
2023-02-21T22:23:38.658Z,14.10
2023-02-21T22:28:41.515Z,9.20
2023-02-21T22:33:44.721Z,10.40
2023-02-21T22:43:53.529Z,18.50
2023-02-21T22:48:56.509Z,21.10
2023-02-21T22:53:59.380Z,41.30
2023-02-21T22:59:05.895Z,86.70
2023-02-21T23:04:16.276Z,17.70
2023-02-21T23:09:19.585Z,27.60
2023-02-21T23:19:27.340Z,19.50
2023-02-21T23:24:30.151Z,33.80
2023-02-21T23:29:32.939Z,53.00
2023-02-21T23:34:41.612Z,15.40
2023-02-21T23:39:46.859Z,22.10
2023-02-21T23:44:50.990Z,20.60
2023-02-21T23:49:58.189Z,33.40
2023-02-21T23:55:00.980Z,22.50
